Time;durP1;ratioP1;P1;durP2;ratioP2;P2;SDS_P1;SDS_P2;PMS_P1;PMS_P2;Temp;Humidity;BMP_temperature;BMP_pressure;BME280_temperature;BME280_humidity;BME280_pressure;Samples;Min_cycle;Max_cycle;Signal;HPM_P1;HPM_P2
2022/12/16 00:00:22;;;;;;;56.13;35.47;;;-0.70;99.90;;;;;;5047665;28;20044;-48
2022/12/16 00:02:48;;;;;;;59.72;37.97;;;-0.70;99.90;;;;;;5050321;28;20402;-49
2022/12/16 00:05:13;;;;;;;61.63;36.83;;;-0.70;99.90;;;;;;5050181;28;20040;-49
2022/12/16 00:07:39;;;;;;;57.80;38.35;;;-0.60;99.90;;;;;;5049727;28;20040;-49
2022/12/16 00:10:06;;;;;;;62.23;37.70;;;-0.60;99.90;;;;;;5049771;28;20045;-48
2022/12/16 00:12:32;;;;;;;64.68;40.63;;;-0.60;99.90;;;;;;5047902;28;20419;-48
2022/12/16 00:14:57;;;;;;;62.83;40.72;;;-0.60;99.90;;;;;;5048535;28;20043;-50
2022/12/16 00:17:23;;;;;;;63.80;39.20;;;-0.60;99.90;;;;;;5049843;28;20033;-49
2022/12/16 00:19:48;;;;;;;65.07;38.13;;;-0.60;99.90;;;;;;5049719;28;20033;-48
2022/12/16 00:22:14;;;;;;;60.20;37.67;;;-0.60;99.90;;;;;;5049482;28;20029;-49
2022/12/16 00:24:39;;;;;;;59.80;38.07;;;-0.50;99.90;;;;;;5048920;28;20490;-48
2022/12/16 00:27:05;;;;;;;63.00;37.07;;;-0.50;99.90;;;;;;5049876;28;20032;-50
2022/12/16 00:29:34;;;;;;;62.77;38.60;;;-0.50;99.90;;;;;;5050624;28;20056;-49
2022/12/16 00:32:01;;;;;;;62.05;37.35;;;-0.50;99.90;;;;;;5050741;28;20183;-49
2022/12/16 00:34:27;;;;;;;69.18;41.28;;;-0.50;99.90;;;;;;5049900;28;20398;-48
2022/12/16 00:36:52;;;;;;;67.38;41.97;;;-0.50;99.90;;;;;;5046962;28;20075;-50
2022/12/16 00:39:18;;;;;;;66.20;41.67;;;-0.50;99.90;;;;;;5048208;28;20094;-49
2022/12/16 00:41:46;;;;;;;63.23;40.60;;;-0.50;99.90;;;;;;5050345;28;20036;-48
2022/12/16 00:44:11;;;;;;;73.30;42.80;;;-0.50;99.90;;;;;;5049576;28;20121;-50
2022/12/16 00:46:37;;;;;;;70.90;42.97;;;-0.50;99.90;;;;;;5050860;28;20498;-49
2022/12/16 00:49:03;;;;;;;66.87;42.93;;;-0.50;99.90;;;;;;5049151;28;20095;-49
2022/12/16 00:51:28;;;;;;;72.70;41.67;;;-0.60;99.90;;;;;;5050076;28;20259;-53
2022/12/16 00:53:54;;;;;;;80.13;42.63;;;-0.60;99.90;;;;;;5049600;28;20049;-49
2022/12/16 00:56:19;;;;;;;68.97;41.07;;;-0.70;99.90;;;;;;5050596;28;20060;-49
2022/12/16 00:58:45;;;;;;;79.33;43.97;;;-0.70;99.90;;;;;;5048879;28;20040;-49
2022/12/16 01:01:11;;;;;;;68.80;43.00;;;-0.70;99.90;;;;;;5050758;28;20037;-52
2022/12/16 01:03:37;;;;;;;72.45;42.78;;;-0.70;99.90;;;;;;5049691;28;20108;-52
2022/12/16 01:06:14;;;;;;;70.53;41.30;;;-0.70;99.90;;;;;;5047849;28;20036;-49
2022/12/16 01:08:47;;;;;;;70.68;41.70;;;-0.70;99.90;;;;;;5050608;28;20045;-48
2022/12/16 01:11:14;;;;;;;72.65;41.55;;;-0.70;99.90;;;;;;5047453;28;20049;-52
2022/12/16 01:13:40;;;;;;;72.72;43.47;;;-0.70;99.90;;;;;;5049817;28;20107;-52
2022/12/16 01:16:05;;;;;;;70.43;42.43;;;-0.70;99.90;;;;;;5049615;28;21334;-52
2022/12/16 01:18:31;;;;;;;67.60;41.20;;;-0.70;99.90;;;;;;5050118;28;20043;-52
2022/12/16 01:21:06;;;;;;;67.53;41.40;;;-0.70;99.90;;;;;;5050038;28;20104;-52
2022/12/16 01:23:32;;;;;;;70.60;41.47;;;-0.70;99.90;;;;;;5048765;28;20631;-53
2022/12/16 01:25:59;;;;;;;;;;;-0.80;99.90;;;;;;5047375;28;20105;-52
2022/12/16 01:28:25;;;;;;;73.63;39.75;;;-0.80;99.90;;;;;;5050162;28;20045;-53
2022/12/16 01:31:00;;;;;;;;;;;-0.80;99.90;;;;;;5050510;28;20055;-51
2022/12/16 01:33:31;;;;;;;71.40;39.42;;;-0.80;99.90;;;;;;5049663;28;19920;-52
2022/12/16 01:36:07;;;;;;;69.35;43.33;;;-0.80;99.90;;;;;;5049039;28;20115;-52
2022/12/16 01:38:34;;;;;;;68.30;40.33;;;-0.80;99.90;;;;;;5050277;28;20036;-49
2022/12/16 01:41:00;;;;;;;76.38;41.00;;;-0.80;99.90;;;;;;5049919;28;20069;-48
2022/12/16 01:43:28;;;;;;;72.03;42.38;;;-0.80;99.90;;;;;;5048675;28;20406;-49
2022/12/16 01:46:12;;;;;;;79.57;42.50;;;-0.90;99.90;;;;;;5049734;28;20052;-49
2022/12/16 01:48:53;;;;;;;68.30;40.70;;;-0.90;99.90;;;;;;5047882;28;20083;-49
2022/12/16 01:51:39;;;;;;;72.50;40.78;;;-0.90;99.90;;;;;;5048278;28;20094;-49
2022/12/16 01:54:23;;;;;;;74.43;42.80;;;-0.90;99.90;;;;;;5047783;28;20431;-48
2022/12/16 01:56:52;;;;;;;72.20;40.50;;;-1.00;99.90;;;;;;5048082;28;20039;-48
2022/12/16 01:59:19;;;;;;;75.97;42.65;;;-1.00;99.90;;;;;;5048199;28;20036;-48
2022/12/16 02:01:44;;;;;;;;;;;-1.00;99.90;;;;;;5049811;28;20552;-48
2022/12/16 02:04:10;;;;;;;72.13;40.45;;;-1.00;99.90;;;;;;5047852;28;19917;-49
2022/12/16 02:06:35;;;;;;;68.07;40.83;;;-1.00;99.90;;;;;;5049942;28;20060;-49
2022/12/16 02:09:06;;;;;;;73.67;44.57;;;-1.00;99.90;;;;;;5048151;28;20056;-51
2022/12/16 02:11:52;;;;;;;72.47;42.17;;;-1.00;99.90;;;;;;5049093;28;20377;-49
2022/12/16 02:14:42;;;;;;;77.30;44.00;;;-1.00;99.90;;;;;;5047831;28;20041;-48
2022/12/16 02:17:20;;;;;;;74.30;41.00;;;-1.00;99.90;;;;;;5048673;28;20445;-48
2022/12/16 02:20:04;;;;;;;68.50;40.42;;;-1.00;99.90;;;;;;5047682;28;20033;-49
2022/12/16 02:22:50;;;;;;;75.68;43.75;;;-1.00;99.90;;;;;;5048593;28;20060;-49
2022/12/16 02:25:33;;;;;;;75.75;41.97;;;-1.10;99.90;;;;;;5048710;28;20080;-50
2022/12/16 02:28:17;;;;;;;72.10;41.97;;;-1.10;99.90;;;;;;5045847;28;20092;-49
2022/12/16 02:31:01;;;;;;;72.05;39.92;;;-1.10;99.90;;;;;;5049059;28;20437;-48
2022/12/16 02:33:43;;;;;;;75.43;43.20;;;-1.10;99.90;;;;;;5043965;28;20032;-49
2022/12/16 02:36:29;;;;;;;79.20;43.95;;;-1.10;99.90;;;;;;5048636;28;20151;-48
2022/12/16 02:39:11;;;;;;;74.65;43.78;;;-1.10;99.90;;;;;;5048582;28;20087;-48
2022/12/16 02:41:49;;;;;;;80.22;42.83;;;-1.10;99.90;;;;;;5048952;28;20533;-50
2022/12/16 02:44:16;;;;;;;75.32;45.00;;;-1.10;99.90;;;;;;5046761;28;20068;-48
2022/12/16 02:46:53;;;;;;;73.97;42.60;;;-1.20;99.90;;;;;;5048368;28;20042;-52
2022/12/16 02:49:22;;;;;;;71.20;43.15;;;-1.10;99.90;;;;;;5045920;28;20453;-52
2022/12/16 02:51:48;;;;;;;85.15;45.22;;;-1.10;99.90;;;;;;5048855;28;20043;-53
2022/12/16 02:54:15;;;;;;;73.47;41.78;;;-1.10;99.90;;;;;;5046468;28;20539;-52
2022/12/16 02:57:32;;;;;;;74.18;41.58;;;-1.10;99.90;;;;;;5048713;28;20044;-53
2022/12/16 03:00:11;;;;;;;78.25;42.83;;;-1.10;99.90;;;;;;5006221;28;20033;-51
2022/12/16 03:02:48;;;;;;;77.35;42.72;;;-1.10;99.90;;;;;;5046051;28;20044;-53
2022/12/16 03:05:25;;;;;;;78.20;41.08;;;-1.00;99.90;;;;;;5047580;28;20159;-52
2022/12/16 03:07:54;;;;;;;78.40;45.20;;;-1.00;99.90;;;;;;5047736;28;20505;-56
2022/12/16 03:10:24;;;;;;;75.97;43.95;;;-1.00;99.90;;;;;;5046938;28;20044;-52
2022/12/16 03:12:51;;;;;;;75.53;45.38;;;-1.00;99.90;;;;;;5048565;28;20035;-48
2022/12/16 03:15:22;;;;;;;78.28;44.13;;;-1.00;99.90;;;;;;5048345;28;20243;-48
2022/12/16 03:17:49;;;;;;;77.63;42.70;;;-1.00;99.90;;;;;;5048556;28;20033;-50
2022/12/16 03:20:20;;;;;;;76.63;44.50;;;-0.90;99.90;;;;;;5048240;28;20410;-49
2022/12/16 03:22:50;;;;;;;75.22;42.90;;;-0.90;99.90;;;;;;5048513;28;20044;-49
2022/12/16 03:25:19;;;;;;;74.05;44.08;;;-0.90;99.90;;;;;;5047904;28;20037;-49
2022/12/16 03:28:05;;;;;;;78.07;45.20;;;-0.90;99.90;;;;;;5048065;28;20073;-49
2022/12/16 03:30:44;;;;;;;77.85;46.78;;;-0.90;99.90;;;;;;5048167;28;20124;-49
2022/12/16 03:33:34;;;;;;;81.90;46.03;;;-0.90;99.90;;;;;;5046977;28;20045;-52
2022/12/16 03:36:08;;;;;;;92.82;47.17;;;-0.90;99.90;;;;;;5051048;28;20115;-48
2022/12/16 03:38:36;;;;;;;72.05;44.30;;;-0.90;99.90;;;;;;5051727;28;20490;-50
2022/12/16 03:41:03;;;;;;;80.35;44.85;;;-0.90;99.90;;;;;;5052017;28;20441;-48
2022/12/16 03:43:28;;;;;;;;;;;-0.90;99.90;;;;;;5051803;28;20041;-48
2022/12/16 03:46:00;;;;;;;78.85;44.70;;;-0.90;99.90;;;;;;5052142;28;20297;-48
2022/12/16 03:48:27;;;;;;;82.25;47.58;;;-0.90;99.90;;;;;;5051639;28;20036;-49
2022/12/16 03:50:52;;;;;;;75.25;43.05;;;-0.90;99.90;;;;;;5052109;28;20032;-49
2022/12/16 03:53:18;;;;;;;80.17;45.33;;;-0.80;99.90;;;;;;5051266;28;20167;-54
2022/12/16 03:55:44;;;;;;;79.67;45.23;;;-0.80;99.90;;;;;;5051413;28;20487;-48
2022/12/16 03:58:09;;;;;;;78.07;44.53;;;-0.90;99.90;;;;;;5051998;28;20044;-49
2022/12/16 04:00:35;;;;;;;75.17;46.87;;;-0.90;99.90;;;;;;5050929;28;20040;-51
2022/12/16 04:03:00;;;;;;;76.63;43.60;;;-0.90;99.90;;;;;;5049582;28;20305;-52
2022/12/16 04:05:26;;;;;;;75.07;43.07;;;-0.90;99.90;;;;;;5050430;28;20036;-53
2022/12/16 04:07:52;;;;;;;78.10;44.47;;;-0.90;99.90;;;;;;5050818;28;20498;-49
2022/12/16 04:24:17;;;;;;;82.22;47.15;;;-0.90;99.90;;;;;;5051808;28;20517;-48
2022/12/16 04:24:18;;;;;;;77.32;44.38;;;-0.90;99.90;;;;;;5050466;28;20037;-52
2022/12/16 04:29:28;;;;;;;78.28;47.08;;;-0.90;99.90;;;;;;5050124;28;20249;-50
2022/12/16 04:31:54;;;;;;;77.20;43.90;;;-0.90;99.90;;;;;;5051049;28;20033;-53
2022/12/16 04:34:30;;;;;;;80.70;45.05;;;-0.90;99.90;;;;;;5050473;28;20033;-52
